createdAt,value
2019-02-04T00:03:25.651Z,65.36
2019-02-04T00:05:54.061Z,65.42
2019-02-04T00:08:22.406Z,66.06
2019-02-04T00:10:50.745Z,65.95
2019-02-04T00:13:19.089Z,66.15
2019-02-04T00:15:47.498Z,67.65
2019-02-04T00:18:15.904Z,66.97
2019-02-04T00:20:44.309Z,67.50
2019-02-04T00:23:12.812Z,67.46
2019-02-04T00:25:41.682Z,67.48
2019-02-04T00:28:10.020Z,67.98
2019-02-04T00:30:38.401Z,67.94
2019-02-04T00:33:06.830Z,67.79
2019-02-04T00:35:35.200Z,67.82
2019-02-04T00:38:03.650Z,67.62
2019-02-04T00:40:32.340Z,67.54
2019-02-04T00:43:00.685Z,67.79
2019-02-04T00:45:29.020Z,68.38
2019-02-04T00:47:57.352Z,68.84
2019-02-04T00:50:25.779Z,68.51
2019-02-04T00:52:54.282Z,69.06
2019-02-04T00:55:23.091Z,69.21
2019-02-04T00:57:51.490Z,69.14
2019-02-04T01:00:23.087Z,69.35
2019-02-04T01:02:51.673Z,69.27
2019-02-04T01:05:20.403Z,68.90
2019-02-04T01:07:48.969Z,69.71
2019-02-04T01:10:21.377Z,69.63
2019-02-04T01:12:49.946Z,69.34
2019-02-04T01:15:18.380Z,69.63
2019-02-04T01:17:46.757Z,69.53
2019-02-04T01:20:18.246Z,69.45
2019-02-04T01:22:46.643Z,69.51
2019-02-04T01:25:15.429Z,70.02
2019-02-04T01:27:43.858Z,70.23
2019-02-04T01:30:15.217Z,70.08
2019-02-04T01:32:43.573Z,70.22
2019-02-04T01:35:14.228Z,70.57
2019-02-04T01:37:42.983Z,71.18
2019-02-04T01:40:14.597Z,71.40
2019-02-04T01:42:42.949Z,71.15
2019-02-04T01:45:12.836Z,71.16
2019-02-04T01:47:41.187Z,71.31
2019-02-04T01:50:13.767Z,71.41
2019-02-04T01:52:42.213Z,71.37
2019-02-04T01:55:13.517Z,71.04
2019-02-04T01:57:42.479Z,70.91
2019-02-04T02:00:16.034Z,71.23
2019-02-04T02:02:44.455Z,71.50
2019-02-04T02:05:13.721Z,71.40
2019-02-04T02:07:42.115Z,71.24
2019-02-04T02:10:12.416Z,71.06
2019-02-04T02:12:40.748Z,71.43
2019-02-04T02:15:09.511Z,71.47
2019-02-04T02:17:37.862Z,71.48
2019-02-04T02:20:12.050Z,71.56
2019-02-04T02:22:40.353Z,71.27
2019-02-04T02:25:08.992Z,71.14
2019-02-04T02:27:37.589Z,71.27
2019-02-04T02:30:10.908Z,72.38
2019-02-04T02:32:39.860Z,71.88
2019-02-04T02:35:08.590Z,72.06
2019-02-04T02:37:36.956Z,72.23
2019-02-04T02:40:11.235Z,72.26
2019-02-04T02:42:39.565Z,72.23
2019-02-04T02:45:08.662Z,72.33
2019-02-04T02:47:38.829Z,72.62
2019-02-04T02:50:11.424Z,72.47
2019-02-04T02:52:39.908Z,72.17
2019-02-04T02:55:11.153Z,72.68
2019-02-04T02:57:39.539Z,72.09
2019-02-04T03:00:13.483Z,72.41
2019-02-04T03:02:41.873Z,72.54
2019-02-04T03:05:13.726Z,72.03
2019-02-04T03:07:42.099Z,72.34
2019-02-04T03:10:15.839Z,71.82
2019-02-04T03:12:44.284Z,72.49
2019-02-04T03:15:13.530Z,72.83
2019-02-04T03:17:50.997Z,72.18
2019-02-04T03:20:13.378Z,72.21
2019-02-04T03:22:41.834Z,72.37
2019-02-04T03:25:13.752Z,72.10
2019-02-04T03:27:42.535Z,72.56
2019-02-04T03:30:14.195Z,72.80
2019-02-04T03:32:42.643Z,73.08
2019-02-04T03:35:11.661Z,73.29
2019-02-04T03:37:39.972Z,72.83
2019-02-04T03:40:14.112Z,72.85
2019-02-04T03:42:42.523Z,72.84
2019-02-04T03:45:12.604Z,72.64
2019-02-04T03:47:41.029Z,72.88
2019-02-04T03:50:12.027Z,72.77
2019-02-04T03:52:40.342Z,73.14
2019-02-04T03:55:12.853Z,72.82
2019-02-04T03:57:41.237Z,73.52
2019-02-04T04:00:15.027Z,72.98
2019-02-04T04:02:43.394Z,73.34
2019-02-04T04:05:13.211Z,73.25
2019-02-04T04:07:42.024Z,72.94
2019-02-04T04:10:11.154Z,72.91
2019-02-04T04:12:39.486Z,72.51
2019-02-04T04:15:10.293Z,72.58
2019-02-04T04:17:38.805Z,72.28
2019-02-04T04:20:10.545Z,73.38
2019-02-04T04:22:39.340Z,73.48
2019-02-04T04:25:09.648Z,73.47
2019-02-04T04:27:38.007Z,73.60
2019-02-04T04:33:17.832Z,73.43
2019-02-04T04:35:46.170Z,73.24
2019-02-04T04:38:14.531Z,73.02
2019-02-04T04:40:43.096Z,73.13
2019-02-04T04:43:11.906Z,72.99
2019-02-04T04:45:40.225Z,72.86
2019-02-04T04:48:08.715Z,72.86
2019-02-04T04:50:37.032Z,73.32
2019-02-04T04:53:05.518Z,72.94
2019-02-04T04:55:34.415Z,72.86
2019-02-04T04:58:02.848Z,72.94
2019-02-04T05:00:31.478Z,72.67
2019-02-04T05:02:59.943Z,72.90
2019-02-04T05:05:28.371Z,72.65
2019-02-04T05:07:56.712Z,73.32
2019-02-04T05:10:25.113Z,73.29
2019-02-04T05:12:53.577Z,73.24
2019-02-04T05:15:23.914Z,73.22
2019-02-04T05:17:52.787Z,72.64
2019-02-04T05:20:21.590Z,73.99
2019-02-04T05:22:50.000Z,73.31
2019-02-04T05:25:18.518Z,73.09
2019-02-04T05:27:46.946Z,73.29
2019-02-04T05:30:19.195Z,73.10
2019-02-04T05:32:47.576Z,72.42
2019-02-04T05:35:15.989Z,72.51
2019-02-04T05:37:44.428Z,72.88
2019-02-04T05:40:15.459Z,72.88
2019-02-04T05:42:44.272Z,72.62
2019-02-04T05:45:14.602Z,72.46
2019-02-04T05:47:43.141Z,72.71
2019-02-04T05:50:13.244Z,73.62
2019-02-04T05:52:41.711Z,73.96
2019-02-04T05:55:12.087Z,73.41
2019-02-04T05:57:41.046Z,73.53
2019-02-04T06:00:14.009Z,73.39
2019-02-04T06:02:42.448Z,72.93
2019-02-04T06:05:12.550Z,74.00
2019-02-04T06:07:40.894Z,75.20
2019-02-04T06:10:11.520Z,74.38
2019-02-04T06:12:39.927Z,75.23
2019-02-04T06:15:12.599Z,75.32
2019-02-04T06:17:41.097Z,75.44
2019-02-04T06:20:14.226Z,75.00
2019-02-04T06:22:42.659Z,74.85
2019-02-04T06:25:11.736Z,74.94
2019-02-04T06:27:40.265Z,75.32
2019-02-04T06:30:11.991Z,75.33
2019-02-04T06:32:41.081Z,75.44
2019-02-04T06:35:09.858Z,74.55
2019-02-04T06:37:38.303Z,74.13
2019-02-04T06:40:10.798Z,74.24
2019-02-04T06:42:39.226Z,74.69
2019-02-04T06:45:10.606Z,74.40
2019-02-04T06:47:39.139Z,74.23
2019-02-04T06:50:11.341Z,73.92
2019-02-04T06:52:40.150Z,73.24
2019-02-04T06:55:11.437Z,72.98
2019-02-04T06:57:39.780Z,72.81
2019-02-04T07:00:10.260Z,73.62
2019-02-04T07:02:38.667Z,74.50
2019-02-04T07:05:08.507Z,75.33
2019-02-04T07:07:37.162Z,73.69
2019-02-04T07:10:11.702Z,72.88
2019-02-04T07:12:40.062Z,72.76
2019-02-04T07:15:10.101Z,72.38
2019-02-04T07:17:38.461Z,71.56
2019-02-04T07:20:10.767Z,70.20
2019-02-04T07:22:39.137Z,69.33
2019-02-04T07:25:10.825Z,69.05
2019-02-04T07:27:39.166Z,67.81
2019-02-04T07:30:11.359Z,66.99
2019-02-04T07:32:39.751Z,66.37
2019-02-04T07:35:09.943Z,65.29
2019-02-04T07:37:38.333Z,65.18
2019-02-04T07:40:10.282Z,64.33
2019-02-04T07:42:38.602Z,63.70
2019-02-04T07:45:10.047Z,62.66
2019-02-04T07:47:38.433Z,62.93
2019-02-04T07:50:09.889Z,63.04
2019-02-04T07:52:38.353Z,61.76
2019-02-04T07:55:09.522Z,59.73
2019-02-04T07:57:37.838Z,59.50
2019-02-04T08:03:15.530Z,58.96
2019-02-04T08:05:43.920Z,60.04
2019-02-04T08:08:12.265Z,60.52
2019-02-04T08:10:40.644Z,61.09
2019-02-04T08:13:09.477Z,62.42
2019-02-04T08:15:38.258Z,61.85
2019-02-04T08:18:07.396Z,60.07
2019-02-04T08:20:35.969Z,58.43
2019-02-04T08:23:04.488Z,56.35
2019-02-04T08:25:32.821Z,55.98
2019-02-04T08:28:01.155Z,57.33
2019-02-04T08:30:33.176Z,56.77
2019-02-04T08:33:01.644Z,58.09
2019-02-04T08:35:30.831Z,60.07
2019-02-04T08:37:59.728Z,59.42
2019-02-04T08:40:28.723Z,58.66
2019-02-04T08:42:57.342Z,59.23
2019-02-04T08:45:26.493Z,59.48
2019-02-04T08:47:54.915Z,59.47
2019-02-04T08:50:24.971Z,59.95
2019-02-04T08:52:54.001Z,59.73
2019-02-04T08:55:23.492Z,59.30
2019-02-04T08:57:53.106Z,64.09
2019-02-04T09:00:22.888Z,69.29
2019-02-04T09:02:52.323Z,65.42
2019-02-04T09:05:21.997Z,63.04
2019-02-04T09:07:50.361Z,58.48
2019-02-04T09:10:23.653Z,58.63
2019-02-04T09:12:52.490Z,57.09
2019-02-04T09:15:21.097Z,56.77
2019-02-04T09:17:49.674Z,58.98
2019-02-04T09:20:18.658Z,59.75
2019-02-04T09:22:47.224Z,59.25
2019-02-04T09:25:16.687Z,57.96
2019-02-04T09:27:45.577Z,58.45
2019-02-04T09:30:16.666Z,58.85
2019-02-04T09:32:44.985Z,59.92
2019-02-04T09:35:16.659Z,59.26
2019-02-04T09:37:45.206Z,59.99
2019-02-04T09:40:17.889Z,60.31
2019-02-04T09:42:46.726Z,59.62
2019-02-04T09:45:16.705Z,60.77
2019-02-04T09:47:45.708Z,60.46
2019-02-04T09:50:21.773Z,59.23
2019-02-04T09:52:46.753Z,59.62
2019-02-04T09:55:17.850Z,58.79
2019-02-04T09:57:46.558Z,59.17
2019-02-04T10:00:19.166Z,59.81
2019-02-04T10:02:47.610Z,60.42
2019-02-04T10:05:17.466Z,59.80
2019-02-04T10:07:45.892Z,59.57
2019-02-04T10:10:17.577Z,59.43
2019-02-04T10:12:46.039Z,59.53
2019-02-04T10:15:17.619Z,60.25
2019-02-04T10:17:46.238Z,59.50
2019-02-04T10:20:16.461Z,59.57
2019-02-04T10:22:45.398Z,58.98
2019-02-04T10:25:16.767Z,58.90
2019-02-04T10:27:45.325Z,59.14
2019-02-04T10:30:16.586Z,59.13
2019-02-04T10:32:45.143Z,57.87
2019-02-04T10:35:16.771Z,58.51
2019-02-04T10:37:45.222Z,57.99
2019-02-04T10:40:16.826Z,58.91
2019-02-04T10:42:45.284Z,58.72
2019-02-04T10:45:15.631Z,58.78
2019-02-04T10:47:44.171Z,58.10
2019-02-04T10:50:14.975Z,58.01
2019-02-04T10:52:44.749Z,57.34
2019-02-04T10:55:13.379Z,56.95
2019-02-04T10:57:41.942Z,56.75
2019-02-04T11:00:15.030Z,56.17
2019-02-04T11:02:43.639Z,55.83
2019-02-04T11:05:14.531Z,55.59
2019-02-04T11:07:43.276Z,55.79
2019-02-04T11:10:15.914Z,55.35
2019-02-04T11:12:44.447Z,54.78
2019-02-04T11:15:15.985Z,54.88
2019-02-04T11:17:44.485Z,54.22
2019-02-04T11:20:18.417Z,53.79
2019-02-04T11:22:47.069Z,53.39
2019-02-04T11:25:15.788Z,52.94
2019-02-04T11:27:44.382Z,53.48
2019-02-04T11:30:19.913Z,54.62
2019-02-04T11:32:48.901Z,52.57
2019-02-04T11:35:17.526Z,52.98
2019-02-04T11:37:46.120Z,53.14
2019-02-04T11:40:18.461Z,52.31
2019-02-04T11:42:46.882Z,51.86
2019-02-04T11:45:15.753Z,52.03
2019-02-04T11:47:44.614Z,51.54
2019-02-04T11:50:14.586Z,51.53
2019-02-04T11:52:42.930Z,51.11
2019-02-04T11:55:14.489Z,51.21
2019-02-04T11:57:43.136Z,50.36
2019-02-04T12:00:16.440Z,51.11
2019-02-04T12:02:45.321Z,50.30
2019-02-04T12:05:16.968Z,49.97
2019-02-04T12:07:45.483Z,51.31
2019-02-04T12:10:17.389Z,50.48
2019-02-04T12:12:45.763Z,50.64
2019-02-04T12:15:18.047Z,50.89
2019-02-04T12:17:46.491Z,50.41
2019-02-04T12:20:16.954Z,50.29
2019-02-04T12:22:46.022Z,50.03
2019-02-04T12:25:18.868Z,50.24
2019-02-04T12:27:47.193Z,49.77
2019-02-04T12:30:19.702Z,49.02
2019-02-04T12:32:48.086Z,49.64
2019-02-04T12:35:16.579Z,49.32
2019-02-04T12:37:44.993Z,49.73
2019-02-04T12:40:16.117Z,49.67
2019-02-04T12:42:44.589Z,48.76
2019-02-04T12:45:17.388Z,48.82
2019-02-04T12:47:45.770Z,49.09
2019-02-04T12:50:14.946Z,49.13
2019-02-04T12:52:43.389Z,48.78
2019-02-04T12:55:15.854Z,47.75
2019-02-04T12:57:44.650Z,48.54
2019-02-04T13:00:17.794Z,48.34
2019-02-04T13:02:46.178Z,46.87
2019-02-04T13:05:17.663Z,47.04
2019-02-04T13:07:46.002Z,45.98
2019-02-04T13:10:15.505Z,47.51
2019-02-04T13:12:44.283Z,46.40
2019-02-04T13:15:16.106Z,45.72
2019-02-04T13:17:44.580Z,45.04
2019-02-04T13:20:15.870Z,43.49
2019-02-04T13:22:44.196Z,45.29
2019-02-04T13:25:16.874Z,45.83
2019-02-04T13:27:45.212Z,44.01
2019-02-04T13:30:16.811Z,44.76
2019-02-04T13:32:45.185Z,43.61
2019-02-04T13:35:14.428Z,44.15
2019-02-04T13:37:43.207Z,44.18
2019-02-04T13:40:15.039Z,43.51
2019-02-04T13:42:43.776Z,44.59
2019-02-04T13:45:15.955Z,44.85
2019-02-04T13:47:44.447Z,43.46
2019-02-04T13:50:15.006Z,42.38
2019-02-04T13:52:44.197Z,41.42
2019-02-04T13:55:16.621Z,41.91
2019-02-04T13:57:45.183Z,40.70
2019-02-04T14:00:16.047Z,40.48
2019-02-04T14:02:44.556Z,40.53
2019-02-04T14:05:13.089Z,41.19
2019-02-04T14:07:41.861Z,40.35
2019-02-04T14:10:15.526Z,41.01
2019-02-04T14:12:45.599Z,41.64
2019-02-04T14:15:16.395Z,41.95
2019-02-04T14:17:44.912Z,42.40
2019-02-04T14:20:15.524Z,43.32
2019-02-04T14:22:43.946Z,43.96
2019-02-04T14:25:12.599Z,43.58
2019-02-04T14:27:41.017Z,42.77
2019-02-04T14:30:15.677Z,43.18
2019-02-04T14:32:44.020Z,42.56
2019-02-04T14:35:12.383Z,42.12
2019-02-04T14:37:40.751Z,43.05
2019-02-04T14:40:18.599Z,43.13
2019-02-04T14:42:41.670Z,41.56
2019-02-04T14:45:13.245Z,42.17
2019-02-04T14:47:42.753Z,43.65
2019-02-04T14:50:16.463Z,43.45
2019-02-04T14:52:49.396Z,43.45
2019-02-04T14:58:35.213Z,43.68
2019-02-04T15:01:10.106Z,44.28
2019-02-04T15:03:42.081Z,44.42
2019-02-04T15:06:15.470Z,44.55
2019-02-04T15:08:49.574Z,45.31
2019-02-04T15:11:21.371Z,44.51
2019-02-04T15:17:02.131Z,45.93
2019-02-04T15:19:37.816Z,46.21
2019-02-04T15:25:20.238Z,47.05
2019-02-04T15:27:54.861Z,46.92
2019-02-04T15:30:26.369Z,46.49
2019-02-04T15:33:00.188Z,46.92
2019-02-04T15:35:32.109Z,46.96
2019-02-04T15:38:02.409Z,46.10
2019-02-04T15:40:35.472Z,46.72
2019-02-04T15:43:08.122Z,47.01
2019-02-04T15:45:40.781Z,46.80
2019-02-04T15:48:09.780Z,46.49
2019-02-04T15:50:42.628Z,46.33
2019-02-04T15:53:11.033Z,46.56
2019-02-04T15:55:40.107Z,46.85
2019-02-04T15:58:08.886Z,47.46
2019-02-04T16:00:37.612Z,46.86
2019-02-04T16:03:06.426Z,46.39
2019-02-04T16:05:34.789Z,47.15
2019-02-04T16:08:03.170Z,47.29
2019-02-04T16:10:31.545Z,47.19
2019-02-04T16:12:59.886Z,46.72
2019-02-04T16:15:28.408Z,46.65
2019-02-04T16:17:57.005Z,46.10
2019-02-04T16:20:25.475Z,46.76
2019-02-04T16:22:58.449Z,46.14
2019-02-04T16:25:24.277Z,45.04
2019-02-04T16:27:52.692Z,44.68
2019-02-04T16:30:21.993Z,45.44
2019-02-04T16:32:52.838Z,45.59
2019-02-04T16:35:20.807Z,45.32
2019-02-04T16:37:50.485Z,46.28
2019-02-04T16:40:21.927Z,45.70
2019-02-04T16:42:50.544Z,44.51
2019-02-04T16:45:21.303Z,45.23
2019-02-04T16:47:50.177Z,45.72
2019-02-04T16:50:20.929Z,45.77
2019-02-04T16:52:49.390Z,44.68
2019-02-04T16:55:18.489Z,44.79
2019-02-04T16:57:46.900Z,45.27
2019-02-04T17:00:17.689Z,45.05
2019-02-04T17:02:47.336Z,45.64
2019-02-04T17:05:16.095Z,45.88
2019-02-04T17:07:44.470Z,45.00
2019-02-04T17:10:16.978Z,45.53
2019-02-04T17:12:48.348Z,45.72
2019-02-04T17:15:18.648Z,45.38
2019-02-04T17:17:49.805Z,46.90
2019-02-04T17:20:24.972Z,45.75
2019-02-04T17:22:53.397Z,46.00
2019-02-04T17:25:21.924Z,45.86
2019-02-04T17:27:50.365Z,45.30
2019-02-04T17:30:22.787Z,45.88
2019-02-04T17:32:51.359Z,45.64
2019-02-04T17:35:19.911Z,45.34
2019-02-04T17:37:48.978Z,45.01
2019-02-04T17:40:20.044Z,45.95
2019-02-04T17:42:48.728Z,46.09
2019-02-04T17:45:17.609Z,46.47
2019-02-04T17:47:47.490Z,46.23
2019-02-04T17:50:17.956Z,46.45
2019-02-04T17:52:46.465Z,46.45
2019-02-04T17:55:18.049Z,46.32
2019-02-04T17:57:46.487Z,46.42
2019-02-04T18:00:23.389Z,46.59
2019-02-04T18:02:51.806Z,46.72
2019-02-04T18:05:20.221Z,47.09
2019-02-04T18:07:48.815Z,47.82
2019-02-04T18:10:18.395Z,47.58
2019-02-04T18:12:47.128Z,47.88
2019-02-04T18:15:18.493Z,48.79
2019-02-04T18:17:46.911Z,48.37
2019-02-04T18:20:15.815Z,48.61
2019-02-04T18:22:44.246Z,48.67
2019-02-04T18:25:17.107Z,49.16
2019-02-04T18:27:45.605Z,49.46
2019-02-04T18:30:18.176Z,49.63
2019-02-04T18:32:46.708Z,49.65
2019-02-04T18:35:16.072Z,49.93
2019-02-04T18:37:44.583Z,49.76
2019-02-04T18:40:17.166Z,49.80
2019-02-04T18:42:46.154Z,49.76
2019-02-04T18:45:16.449Z,49.79
2019-02-04T18:47:45.961Z,50.23
2019-02-04T18:50:15.357Z,50.25
2019-02-04T18:52:44.302Z,49.83
2019-02-04T18:55:15.967Z,49.87
2019-02-04T18:57:44.377Z,49.78
2019-02-04T19:00:15.650Z,50.77
2019-02-04T19:02:44.213Z,50.67
2019-02-04T19:05:13.618Z,49.99
2019-02-04T19:07:42.411Z,50.94
2019-02-04T19:10:14.146Z,50.94
2019-02-04T19:12:42.570Z,50.88
2019-02-04T19:15:15.072Z,51.23
2019-02-04T19:17:43.684Z,51.32
2019-02-04T19:20:17.497Z,51.60
2019-02-04T19:22:46.008Z,51.28
2019-02-04T19:25:17.183Z,51.53
2019-02-04T19:27:46.006Z,51.46
2019-02-04T19:30:18.227Z,51.10
2019-02-04T19:32:46.725Z,50.90
2019-02-04T19:35:15.737Z,50.37
2019-02-04T19:37:44.253Z,50.54
2019-02-04T19:40:16.154Z,50.67
2019-02-04T19:42:44.584Z,50.63
2019-02-04T19:45:15.307Z,50.26
2019-02-04T19:47:43.678Z,50.01
2019-02-04T19:50:18.911Z,49.93
2019-02-04T19:52:47.410Z,50.46
2019-02-04T19:55:16.286Z,50.43
2019-02-04T19:57:44.798Z,50.63
2019-02-04T20:00:15.629Z,50.41
2019-02-04T20:02:44.617Z,50.59
2019-02-04T20:05:15.654Z,50.36
2019-02-04T20:07:44.094Z,51.44
2019-02-04T20:10:13.672Z,51.44
2019-02-04T20:12:42.173Z,51.61
2019-02-04T20:15:13.914Z,51.33
2019-02-04T20:17:42.713Z,50.21
2019-02-04T20:20:12.137Z,50.58
2019-02-04T20:22:40.486Z,50.85
2019-02-04T20:25:15.206Z,50.86
2019-02-04T20:27:44.633Z,50.83
2019-02-04T20:30:17.582Z,50.72
2019-02-04T20:32:46.038Z,50.54
2019-02-04T20:35:14.862Z,50.59
2019-02-04T20:37:43.329Z,51.19
2019-02-04T20:40:16.875Z,50.57
2019-02-04T20:42:45.350Z,50.73
2019-02-04T20:45:15.069Z,51.02
2019-02-04T20:47:44.106Z,50.91
2019-02-04T20:50:15.881Z,51.48
2019-02-04T20:52:44.241Z,51.98
2019-02-04T20:55:13.130Z,51.65
2019-02-04T20:57:41.451Z,51.03
2019-02-04T21:00:13.816Z,51.11
2019-02-04T21:02:42.144Z,51.18
2019-02-04T21:05:11.292Z,51.74
2019-02-04T21:07:39.685Z,51.17
2019-02-04T21:10:10.638Z,51.44
2019-02-04T21:12:38.968Z,52.31
2019-02-04T21:15:10.946Z,52.56
2019-02-04T21:17:40.133Z,51.06
2019-02-04T21:20:13.556Z,50.89
2019-02-04T21:22:41.951Z,51.36
2019-02-04T21:25:11.909Z,51.25
2019-02-04T21:27:40.325Z,51.28
2019-02-04T21:30:13.463Z,52.00
2019-02-04T21:32:41.838Z,51.58
2019-02-04T21:35:10.897Z,51.69
2019-02-04T21:37:39.638Z,52.18
2019-02-04T21:40:13.243Z,52.74
2019-02-04T21:42:41.638Z,52.32
2019-02-04T21:45:13.475Z,51.57
2019-02-04T21:47:41.947Z,51.46
2019-02-04T21:50:14.561Z,51.91
2019-02-04T21:52:43.209Z,51.79
2019-02-04T21:55:12.562Z,51.51
2019-02-04T21:57:41.345Z,51.57
2019-02-04T22:00:16.096Z,52.24
2019-02-04T22:02:44.947Z,51.63
2019-02-04T22:05:15.132Z,51.76
2019-02-04T22:07:44.006Z,52.17
2019-02-04T22:10:18.811Z,52.07
2019-02-04T22:12:47.670Z,51.52
2019-02-04T22:15:16.169Z,51.16
2019-02-04T22:17:44.740Z,51.95
2019-02-04T22:20:15.241Z,52.15
2019-02-04T22:22:43.695Z,52.56
2019-02-04T22:25:19.929Z,51.97
2019-02-04T22:27:46.382Z,52.47
2019-02-04T22:30:18.799Z,52.75
2019-02-04T22:32:47.427Z,51.92
2019-02-04T22:35:17.240Z,52.17
2019-02-04T22:37:45.674Z,52.28
2019-02-04T22:40:18.048Z,52.05
2019-02-04T22:42:46.390Z,52.21
2019-02-04T22:45:16.368Z,52.36
2019-02-04T22:47:44.786Z,53.17
2019-02-04T22:50:14.957Z,52.48
2019-02-04T22:52:43.436Z,52.70
2019-02-04T22:55:13.926Z,52.76
2019-02-04T22:57:42.286Z,53.41
2019-02-04T23:00:14.020Z,53.82
2019-02-04T23:02:42.454Z,53.76
2019-02-04T23:05:11.310Z,53.97
2019-02-04T23:07:39.617Z,53.90
2019-02-04T23:10:08.693Z,53.49
2019-02-04T23:12:37.066Z,53.67
2019-02-04T23:15:07.937Z,54.39
2019-02-04T23:17:36.369Z,54.50
2019-02-04T23:20:06.894Z,55.07
2019-02-04T23:22:35.387Z,54.57
2019-02-04T23:25:05.987Z,54.74
2019-02-04T23:27:34.629Z,54.57
2019-02-04T23:30:07.266Z,54.47
2019-02-04T23:32:35.650Z,54.17
2019-02-04T23:35:04.368Z,54.21
2019-02-04T23:37:32.825Z,55.03
2019-02-04T23:40:01.247Z,55.57
2019-02-04T23:42:29.622Z,55.54
2019-02-04T23:44:57.964Z,55.36
2019-02-04T23:47:26.279Z,55.15
2019-02-04T23:49:54.669Z,54.55
2019-02-04T23:52:22.992Z,54.23
2019-02-04T23:54:51.690Z,54.00
2019-02-04T23:57:20.043Z,54.29
2019-02-04T23:59:48.408Z,54.48
